createdAt,value
2018-05-09T00:01:02.647Z,101581.60
2018-05-09T00:03:30.184Z,101512.53
2018-05-09T00:05:57.706Z,101513.55
2018-05-09T00:08:25.264Z,101535.89
2018-05-09T00:10:53.271Z,101561.28
2018-05-09T00:13:20.803Z,101594.80
2018-05-09T00:15:48.331Z,101527.77
2018-05-09T00:18:16.198Z,101558.23
2018-05-09T00:20:43.722Z,101604.97
2018-05-09T00:23:11.251Z,101692.32
2018-05-09T00:25:38.820Z,101653.72
2018-05-09T00:28:06.341Z,101695.37
2018-05-09T00:30:33.866Z,101713.65
2018-05-09T00:33:01.415Z,101710.60
2018-05-09T00:35:28.971Z,101630.36
2018-05-09T00:37:56.628Z,101700.45
2018-05-09T00:40:24.168Z,101776.63
2018-05-09T00:42:51.693Z,101786.78
2018-05-09T00:45:19.352Z,101753.27
2018-05-09T00:47:46.882Z,101810.16
2018-05-09T00:50:14.477Z,101779.68
2018-05-09T00:52:41.978Z,101829.45
2018-05-09T00:55:09.507Z,101907.67
2018-05-09T00:57:37.263Z,101904.63
2018-05-09T01:00:04.809Z,101936.12
2018-05-09T01:02:32.337Z,101971.67
2018-05-09T01:04:59.881Z,101900.56
2018-05-09T01:07:28.210Z,101962.53
2018-05-09T01:09:55.790Z,102065.13
2018-05-09T01:12:23.317Z,102072.25
2018-05-09T01:14:50.839Z,102094.59
2018-05-09T01:17:18.391Z,102086.47
2018-05-09T01:19:46.344Z,102168.76
2018-05-09T01:22:13.866Z,102145.39
2018-05-09T01:24:41.418Z,102078.34
2018-05-09T01:27:08.987Z,102136.25
2018-05-09T01:29:36.513Z,102226.66
2018-05-09T01:32:04.075Z,102282.55
2018-05-09T01:34:31.626Z,102178.91
2018-05-09T01:36:59.370Z,102210.41
2018-05-09T01:39:26.904Z,102286.61
2018-05-09T01:41:54.437Z,102263.23
2018-05-09T01:44:21.977Z,102255.11
2018-05-09T01:46:49.538Z,102348.58
2018-05-09T01:49:17.236Z,102320.12
2018-05-09T01:51:44.753Z,102299.81
2018-05-09T01:54:12.279Z,102332.32
2018-05-09T01:56:40.052Z,102413.60
2018-05-09T01:59:07.578Z,102290.67
2018-05-09T02:01:35.103Z,102290.67
2018-05-09T02:04:02.650Z,102393.28
2018-05-09T02:06:30.194Z,102339.44
2018-05-09T02:08:57.727Z,102427.83
2018-05-09T02:11:25.323Z,102359.75
2018-05-09T02:13:52.864Z,102455.26
2018-05-09T02:16:20.383Z,102539.59
2018-05-09T02:18:47.928Z,102534.50
2018-05-09T02:21:15.454Z,102499.96
2018-05-09T02:23:43.003Z,102525.36
2018-05-09T02:26:10.554Z,102553.81
2018-05-09T02:28:38.077Z,102447.13
2018-05-09T02:31:05.851Z,102528.41
2018-05-09T02:33:33.332Z,102489.80
2018-05-09T02:36:00.860Z,102484.72
2018-05-09T02:38:28.550Z,102423.77
2018-05-09T02:40:56.088Z,102503.01
2018-05-09T02:43:23.633Z,102538.57
2018-05-09T02:45:51.192Z,102598.52
2018-05-09T02:48:18.758Z,102590.39
2018-05-09T02:50:46.287Z,102604.61
2018-05-09T02:53:13.839Z,102581.25
2018-05-09T02:55:41.364Z,102541.63
2018-05-09T02:58:08.914Z,102536.54
2018-05-09T03:00:36.444Z,102549.75
2018-05-09T03:03:04.114Z,102603.59
2018-05-09T03:05:31.644Z,102575.15
2018-05-09T03:07:59.166Z,102619.85
2018-05-09T03:10:27.147Z,102614.77
2018-05-09T03:12:54.684Z,102642.20
2018-05-09T03:15:22.211Z,102687.93
2018-05-09T03:17:49.815Z,102690.98
2018-05-09T03:20:17.350Z,102773.28
2018-05-09T03:22:44.883Z,102782.42
2018-05-09T03:25:12.439Z,102722.48
2018-05-09T03:27:40.016Z,102734.67
2018-05-09T03:30:07.576Z,102792.59
2018-05-09T03:32:35.111Z,102815.95
2018-05-09T03:35:02.703Z,102833.23
2018-05-09T03:37:30.327Z,102756.01
2018-05-09T03:39:57.794Z,102834.25
2018-05-09T03:42:25.340Z,102827.14
2018-05-09T03:44:52.886Z,102743.81
2018-05-09T03:47:20.432Z,102731.63
2018-05-09T03:49:47.964Z,102831.20
2018-05-09T03:52:15.519Z,102772.27
2018-05-09T03:54:43.108Z,102696.06
2018-05-09T03:57:10.640Z,102795.64
2018-05-09T03:59:38.184Z,102835.27
2018-05-09T04:02:17.872Z,102819.01
2018-05-09T04:04:57.187Z,102771.25
2018-05-09T04:07:37.169Z,102620.88
2018-05-09T04:10:04.704Z,102573.12
2018-05-09T04:12:32.233Z,102633.06
2018-05-09T04:15:00.202Z,102629.00
2018-05-09T04:17:27.737Z,102660.50
2018-05-09T04:19:55.266Z,102587.34
2018-05-09T04:22:23.021Z,102633.06
2018-05-09T04:24:50.579Z,102630.02
2018-05-09T04:27:18.102Z,102634.08
2018-05-09T04:29:45.663Z,102610.71
2018-05-09T04:32:13.218Z,102620.88
2018-05-09T04:34:41.200Z,102534.50
2018-05-09T04:37:08.745Z,102542.64
2018-05-09T04:39:36.285Z,102431.89
2018-05-09T04:42:03.865Z,102352.64
2018-05-09T04:44:31.398Z,102392.27
2018-05-09T04:46:59.068Z,102419.70
2018-05-09T04:49:26.692Z,102389.22
2018-05-09T04:51:54.220Z,102439.00
2018-05-09T04:54:21.772Z,102393.28
2018-05-09T04:56:49.304Z,102327.24
2018-05-09T04:59:16.850Z,102312.00
2018-05-09T05:01:44.403Z,102316.06
2018-05-09T05:04:11.927Z,102290.67
2018-05-09T05:06:39.483Z,102237.84
2018-05-09T05:09:07.323Z,102115.93
2018-05-09T05:11:34.852Z,102012.30
2018-05-09T05:14:02.398Z,102065.13
2018-05-09T05:16:29.960Z,102114.91
2018-05-09T05:18:57.486Z,102054.97
2018-05-09T05:21:25.071Z,101888.38
2018-05-09T05:23:52.601Z,101816.25
2018-05-09T05:26:20.221Z,101457.68
2018-05-09T05:28:47.906Z,101335.80
2018-05-09T05:31:15.428Z,100855.41
2018-05-09T05:33:42.955Z,100329.41
2018-05-09T05:36:10.532Z,100826.98
2018-05-09T05:38:38.055Z,100963.06
2018-05-09T05:41:05.596Z,100825.96
2018-05-09T05:43:33.148Z,100865.56
2018-05-09T05:46:00.670Z,100674.66
2018-05-09T05:48:28.396Z,100571.08
2018-05-09T05:50:55.923Z,100780.27
2018-05-09T05:53:23.446Z,100966.11
2018-05-09T05:55:51.411Z,101026.03
2018-05-09T05:58:18.930Z,100621.84
2018-05-09T06:00:46.646Z,100287.77
2018-05-09T06:03:14.560Z,100574.12
2018-05-09T06:05:42.084Z,100816.83
2018-05-09T06:08:09.617Z,100275.59
2018-05-09T06:10:37.211Z,100489.84
2018-05-09T06:13:04.765Z,100139.53
2018-05-09T06:15:32.299Z,100549.75
2018-05-09T06:17:59.860Z,100388.30
2018-05-09T06:20:27.390Z,100287.77
2018-05-09T06:22:54.935Z,99896.88
2018-05-09T06:25:22.459Z,100312.14
2018-05-09T06:27:50.022Z,100462.42
2018-05-09T06:30:17.865Z,100210.61
2018-05-09T06:32:45.408Z,100050.18
2018-05-09T06:35:12.938Z,99791.29
2018-05-09T06:37:40.491Z,99992.31
2018-05-09T06:40:08.019Z,100286.76
2018-05-09T06:42:35.607Z,99678.60
2018-05-09T06:45:03.132Z,99805.50
2018-05-09T06:47:30.659Z,99738.50
2018-05-09T06:49:58.265Z,99053.30
2018-05-09T06:52:25.773Z,99480.64
2018-05-09T06:54:53.361Z,99692.81
2018-05-09T06:57:20.892Z,99776.06
2018-05-09T06:59:48.468Z,99408.57
2018-05-09T07:02:16.009Z,99919.21
2018-05-09T07:04:43.556Z,99977.08
2018-05-09T07:07:11.092Z,99569.98
2018-05-09T07:09:38.644Z,99661.34
2018-05-09T07:12:06.170Z,99716.16
2018-05-09T07:14:33.756Z,100130.39
2018-05-09T07:17:01.284Z,99893.83
2018-05-09T07:19:28.813Z,99604.49
2018-05-09T07:21:56.387Z,99711.09
2018-05-09T07:24:23.915Z,99648.14
2018-05-09T07:26:51.473Z,99600.43
2018-05-09T07:29:18.993Z,99693.83
2018-05-09T07:31:46.540Z,99565.91
2018-05-09T07:34:14.067Z,99692.81
2018-05-09T07:36:41.611Z,99562.88
2018-05-09T07:39:09.304Z,99468.46
2018-05-09T07:41:36.824Z,99435.98
2018-05-09T07:44:04.348Z,99285.74
2018-05-09T07:46:31.905Z,99387.25
2018-05-09T07:48:59.481Z,99511.09
2018-05-09T07:51:27.024Z,99409.59
2018-05-09T07:53:55.044Z,99604.49
2018-05-09T07:56:22.563Z,99299.95
2018-05-09T07:58:50.090Z,99234.98
2018-05-09T08:01:17.641Z,99048.22
2018-05-09T08:03:45.214Z,98720.39
2018-05-09T08:06:12.797Z,98966.00
2018-05-09T08:08:40.752Z,99028.94
2018-05-09T08:11:08.307Z,99131.45
2018-05-09T08:13:35.830Z,99314.16
2018-05-09T08:16:03.378Z,98850.30
2018-05-09T08:18:30.901Z,99174.08
2018-05-09T08:20:58.446Z,98787.38
2018-05-09T08:23:25.999Z,98945.70
2018-05-09T08:25:53.517Z,98876.69
2018-05-09T08:28:21.062Z,98757.94
2018-05-09T08:30:48.603Z,98925.41
2018-05-09T08:33:16.150Z,98548.88
2018-05-09T08:35:43.673Z,98567.14
2018-05-09T08:38:11.367Z,98763.02
2018-05-09T08:40:38.903Z,98650.36
2018-05-09T08:43:06.434Z,98816.80
2018-05-09T08:45:33.978Z,98890.89
2018-05-09T08:48:01.501Z,98426.07
2018-05-09T08:50:29.039Z,98445.35
2018-05-09T08:52:56.558Z,98252.55
2018-05-09T08:55:24.192Z,98368.23
2018-05-09T08:57:51.670Z,98321.55
2018-05-09T09:00:19.196Z,98449.41
2018-05-09T09:02:47.096Z,98258.63
2018-05-09T09:05:14.626Z,98145.98
2018-05-09T09:07:42.147Z,98038.43
2018-05-09T09:10:09.742Z,97921.73
2018-05-09T09:12:37.266Z,98069.89
2018-05-09T09:15:04.808Z,98087.14
2018-05-09T09:17:32.395Z,98084.09
2018-05-09T09:19:59.939Z,98105.40
2018-05-09T09:22:27.476Z,98055.68
2018-05-09T09:24:55.025Z,97881.15
2018-05-09T09:27:22.560Z,97897.39
2018-05-09T09:29:50.113Z,97824.33
2018-05-09T09:32:17.697Z,97890.28
2018-05-09T09:34:45.323Z,97956.23
2018-05-09T09:37:12.861Z,97940.00
2018-05-09T09:39:40.410Z,97716.78
2018-05-09T09:42:07.946Z,97586.91
2018-05-09T09:44:35.537Z,97602.13
2018-05-09T09:47:03.059Z,97660.97
2018-05-09T09:49:30.592Z,97739.09
2018-05-09T09:51:58.571Z,97682.28
2018-05-09T09:54:26.103Z,97643.73
2018-05-09T09:56:53.632Z,97460.09
2018-05-09T09:59:21.204Z,97491.54
2018-05-09T10:01:48.732Z,97316.02
2018-05-09T10:04:16.250Z,97193.27
2018-05-09T10:06:43.815Z,97174.00
2018-05-09T10:09:11.340Z,97205.44
2018-05-09T10:11:38.893Z,97281.53
2018-05-09T10:14:06.419Z,97404.29
2018-05-09T10:16:33.968Z,97250.08
2018-05-09T10:19:01.501Z,96984.30
2018-05-09T10:21:29.248Z,97084.72
2018-05-09T10:23:56.771Z,96956.91
2018-05-09T10:26:24.304Z,96935.60
2018-05-09T10:28:52.062Z,97024.88
2018-05-09T10:31:19.625Z,96989.37
2018-05-09T10:33:47.168Z,97104.00
2018-05-09T10:36:14.731Z,96809.82
2018-05-09T10:38:42.244Z,96931.55
2018-05-09T10:41:09.795Z,96836.20
2018-05-09T10:43:37.321Z,96845.33
2018-05-09T10:46:05.084Z,96566.38
2018-05-09T10:48:32.624Z,96489.30
2018-05-09T10:51:00.168Z,96541.03
2018-05-09T10:53:27.714Z,96452.78
2018-05-09T10:55:55.264Z,96543.05
2018-05-09T10:58:22.824Z,96269.21
2018-05-09T11:00:50.341Z,96202.27
2018-05-09T11:03:17.858Z,96526.83
2018-05-09T11:05:45.401Z,96561.31
2018-05-09T11:08:12.927Z,96282.39
2018-05-09T11:10:40.463Z,96560.30
2018-05-09T11:13:07.987Z,96344.27
2018-05-09T11:15:35.531Z,96307.75
2018-05-09T11:18:03.051Z,96323.98
2018-05-09T11:20:30.606Z,96187.06
2018-05-09T11:22:58.124Z,96105.92
2018-05-09T11:25:25.795Z,95943.67
2018-05-09T11:27:53.319Z,95806.77
2018-05-09T11:30:20.849Z,96137.37
2018-05-09T11:32:48.411Z,95994.38
2018-05-09T11:35:15.925Z,95840.23
2018-05-09T11:37:43.455Z,95630.33
2018-05-09T11:40:10.988Z,96075.50
2018-05-09T11:42:38.527Z,95922.37
2018-05-09T11:45:06.058Z,95819.95
2018-05-09T11:47:33.741Z,95892.96
2018-05-09T11:50:02.396Z,96072.46
2018-05-09T11:52:29.921Z,95883.84
2018-05-09T11:54:57.445Z,95905.12
2018-05-09T11:57:24.996Z,95669.87
2018-05-09T11:59:52.524Z,95647.56
2018-05-09T12:02:20.276Z,95379.88
2018-05-09T12:04:47.816Z,95777.36
2018-05-09T12:07:15.339Z,95980.17
2018-05-09T12:09:43.286Z,95991.33
2018-05-09T12:12:10.803Z,95685.08
2018-05-09T12:14:38.328Z,95583.67
2018-05-09T12:17:05.874Z,95420.43
2018-05-09T12:19:33.799Z,95740.84
2018-05-09T12:22:01.310Z,95586.72
2018-05-09T12:24:28.910Z,95506.61
2018-05-09T12:26:56.416Z,95435.64
2018-05-09T12:29:24.393Z,95377.84
2018-05-09T12:31:51.949Z,95845.30
2018-05-09T12:34:19.475Z,95922.37
2018-05-09T12:36:47.245Z,95646.55
2018-05-09T12:39:14.747Z,95650.60
2018-05-09T12:41:42.291Z,95556.30
2018-05-09T12:44:09.838Z,95495.46
2018-05-09T12:46:37.365Z,95580.64
2018-05-09T12:49:05.022Z,95398.13
2018-05-09T12:51:32.547Z,95532.98
2018-05-09T12:54:00.111Z,95777.36
2018-05-09T12:56:27.690Z,95657.70
2018-05-09T12:58:55.216Z,95349.45
2018-05-09T13:01:22.744Z,95040.22
2018-05-09T13:03:50.416Z,95114.23
2018-05-09T13:06:17.928Z,94988.51
2018-05-09T13:08:45.451Z,95166.95
2018-05-09T13:11:13.009Z,95222.71
2018-05-09T13:13:40.561Z,95028.05
2018-05-09T13:16:08.088Z,95158.84
2018-05-09T13:18:35.750Z,95466.05
2018-05-09T13:21:03.279Z,95125.38
2018-05-09T13:23:30.803Z,94994.59
2018-05-09T13:25:58.465Z,95027.03
2018-05-09T13:28:26.071Z,94987.50
2018-05-09T13:30:53.586Z,95165.94
2018-05-09T13:33:21.110Z,94948.97
2018-05-09T13:35:48.662Z,94980.40
2018-05-09T13:38:16.185Z,94991.55
2018-05-09T13:40:43.732Z,95090.91
2018-05-09T13:43:11.255Z,95123.35
2018-05-09T13:45:38.834Z,94718.84
2018-05-09T13:48:06.354Z,94572.87
2018-05-09T13:50:33.879Z,94883.08
2018-05-09T13:53:01.480Z,95151.74
2018-05-09T13:55:29.005Z,95099.02
2018-05-09T13:57:56.533Z,94903.34
2018-05-09T14:00:24.081Z,94961.14
2018-05-09T14:02:51.619Z,94910.45
2018-05-09T14:05:19.174Z,94915.52
2018-05-09T14:07:46.686Z,94608.34
2018-05-09T14:10:14.236Z,94465.41
2018-05-09T14:12:41.766Z,94654.98
2018-05-09T14:15:09.537Z,94775.61
2018-05-09T14:17:37.067Z,95066.58
2018-05-09T14:20:04.606Z,95060.49
2018-05-09T14:22:32.171Z,94662.08
2018-05-09T14:24:59.699Z,94509.00
2018-05-09T14:27:27.223Z,94197.81
2018-05-09T14:29:54.799Z,94535.36
2018-05-09T14:32:22.401Z,94289.04
2018-05-09T14:34:49.895Z,94322.48
2018-05-09T14:37:17.448Z,94404.59
2018-05-09T14:39:44.995Z,94213.02
2018-05-09T14:42:12.734Z,94291.06
2018-05-09T14:44:40.252Z,94226.20
2018-05-09T14:47:07.771Z,94402.56
2018-05-09T14:49:35.320Z,94351.88
2018-05-09T14:52:02.981Z,94476.56
2018-05-09T14:54:30.561Z,94819.20
2018-05-09T14:56:58.108Z,95136.53
2018-05-09T14:59:25.728Z,94726.95
2018-05-09T15:01:53.257Z,94643.83
2018-05-09T15:04:20.814Z,94705.66
2018-05-09T15:06:48.364Z,95156.81
2018-05-09T15:09:15.937Z,94874.96
2018-05-09T15:11:43.467Z,94359.99
2018-05-09T15:14:11.087Z,94341.75
2018-05-09T15:16:38.578Z,94227.20
2018-05-09T15:19:06.107Z,94222.14
2018-05-09T15:21:33.654Z,94423.86
2018-05-09T15:24:01.199Z,94534.34
2018-05-09T15:26:28.866Z,94411.69
2018-05-09T15:28:56.390Z,94349.86
2018-05-09T15:31:23.913Z,94483.66
2018-05-09T15:33:51.469Z,94258.62
2018-05-09T15:36:19.939Z,94328.57
2018-05-09T15:38:47.504Z,94149.16
2018-05-09T15:41:15.040Z,93824.83
2018-05-09T15:43:42.611Z,93959.63
2018-05-09T15:46:10.152Z,93816.72
2018-05-09T15:48:37.704Z,93803.55
2018-05-09T15:51:05.283Z,94432.98
2018-05-09T15:53:32.816Z,94388.38
2018-05-09T15:56:00.352Z,94148.15
2018-05-09T15:58:27.914Z,93955.58
2018-05-09T16:00:55.510Z,95158.84
2018-05-09T16:03:22.970Z,95397.11
2018-05-09T16:05:50.562Z,95486.33
2018-05-09T16:08:18.323Z,95418.40
2018-05-09T16:10:45.856Z,95547.17
2018-05-09T16:13:13.383Z,95469.09
2018-05-09T16:15:40.936Z,95159.85
2018-05-09T16:18:08.482Z,95281.52
2018-05-09T16:20:36.057Z,94722.89
2018-05-09T16:23:03.590Z,94079.22
2018-05-09T16:25:31.120Z,93678.89
2018-05-09T16:27:58.713Z,93764.02
2018-05-09T16:30:26.232Z,94119.77
2018-05-09T16:32:53.756Z,93893.75
2018-05-09T16:35:21.339Z,94793.86
2018-05-09T16:37:49.097Z,95054.41
2018-05-09T16:40:16.684Z,95151.74
2018-05-09T16:42:44.210Z,95375.81
2018-05-09T16:45:11.752Z,95215.61
2018-05-09T16:47:39.311Z,95399.13
2018-05-09T16:50:06.825Z,95158.84
2018-05-09T16:52:34.553Z,95429.55
2018-05-09T16:55:02.105Z,95318.02
2018-05-09T16:57:30.430Z,95369.73
2018-05-09T16:59:57.976Z,95480.25
2018-05-09T17:02:25.501Z,95513.71
2018-05-09T17:04:53.096Z,95486.33
2018-05-09T17:07:20.631Z,95484.30
2018-05-09T17:09:48.192Z,95804.73
2018-05-09T17:12:15.738Z,95852.40
2018-05-09T17:14:43.257Z,95802.70
2018-05-09T17:17:10.926Z,96161.70
2018-05-09T17:19:38.491Z,96163.73
2018-05-09T17:22:33.995Z,96013.64
2018-05-09T17:25:01.525Z,96192.13
2018-05-09T17:27:29.063Z,96237.77
2018-05-09T17:29:56.812Z,96417.29
2018-05-09T17:32:24.338Z,96518.72
2018-05-09T17:34:51.872Z,96461.91
2018-05-09T17:37:20.492Z,96585.66
2018-05-09T17:39:48.021Z,96594.78
2018-05-09T17:42:15.650Z,96654.63
2018-05-09T17:44:43.204Z,96782.44
2018-05-09T17:47:10.782Z,96943.72
2018-05-09T17:49:38.307Z,97005.59
2018-05-09T17:52:05.841Z,97047.19
2018-05-09T17:54:33.570Z,97133.42
2018-05-09T17:57:01.095Z,97247.03
2018-05-09T17:59:28.627Z,97295.73
2018-05-09T18:01:56.312Z,97338.34
2018-05-09T18:04:23.867Z,97388.05
2018-05-09T18:06:51.432Z,97476.32
2018-05-09T18:09:18.951Z,97470.23
2018-05-09T18:11:46.701Z,97502.70
2018-05-09T18:14:14.227Z,97387.04
2018-05-09T18:16:42.031Z,97497.62
2018-05-09T18:19:09.650Z,97537.20
2018-05-09T18:21:37.172Z,97554.44
2018-05-09T18:24:04.696Z,97534.16
2018-05-09T18:26:32.267Z,97588.94
2018-05-09T18:28:59.791Z,97581.84
2018-05-09T18:31:27.349Z,97808.09
2018-05-09T18:33:54.941Z,97799.98
2018-05-09T18:36:22.463Z,97951.16
2018-05-09T18:38:49.993Z,98048.58
2018-05-09T18:41:17.547Z,98111.48
2018-05-09T18:43:45.085Z,98214.99
2018-05-09T18:46:12.678Z,98256.59
2018-05-09T18:48:40.216Z,98213.98
2018-05-09T18:51:07.746Z,98281.97
2018-05-09T18:53:35.295Z,98349.96
2018-05-09T18:56:02.874Z,98423.03
2018-05-09T18:58:30.390Z,98443.33
2018-05-09T19:00:57.917Z,98558.00
2018-05-09T19:03:25.467Z,98560.03
2018-05-09T19:05:52.992Z,98647.31
2018-05-09T19:08:20.538Z,98652.39
2018-05-09T19:10:48.060Z,98682.83
2018-05-09T19:13:15.612Z,98742.72
2018-05-09T19:15:43.158Z,98779.25
2018-05-09T19:18:10.683Z,98784.33
2018-05-09T19:20:38.253Z,98839.13
2018-05-09T19:23:05.844Z,98970.06
2018-05-09T19:25:33.332Z,99099.98
2018-05-09T19:28:01.159Z,99123.33
2018-05-09T19:30:28.683Z,99164.95
2018-05-09T19:32:56.209Z,98933.52
2018-05-09T19:35:23.859Z,98806.66
2018-05-09T19:37:51.340Z,99012.70
2018-05-09T19:40:18.863Z,99017.77
2018-05-09T19:42:46.416Z,98984.28
2018-05-09T19:45:14.482Z,99039.09
2018-05-09T19:47:42.007Z,99087.80
2018-05-09T19:50:09.543Z,98969.05
2018-05-09T19:52:37.095Z,99020.81
2018-05-09T19:55:04.664Z,99147.69
2018-05-09T19:57:32.213Z,99115.21
2018-05-09T19:59:59.762Z,99183.22
2018-05-09T20:02:27.291Z,99173.07
2018-05-09T20:04:54.908Z,99185.25
2018-05-09T20:07:22.431Z,99231.94
2018-05-09T20:09:49.969Z,99204.53
2018-05-09T20:12:17.526Z,99181.19
2018-05-09T20:14:45.048Z,99154.80
2018-05-09T20:17:12.596Z,99057.36
2018-05-09T20:19:40.127Z,98936.57
2018-05-09T20:22:07.684Z,99101.00
2018-05-09T20:24:35.247Z,99231.94
2018-05-09T20:27:02.808Z,99344.62
2018-05-09T20:29:30.341Z,99359.84
2018-05-09T20:32:10.356Z,99372.02
2018-05-09T20:34:37.879Z,99378.12
2018-05-09T20:37:05.412Z,99442.06
2018-05-09T20:39:33.080Z,99416.69
2018-05-09T20:42:00.719Z,99459.33
2018-05-09T20:44:28.211Z,99406.54
2018-05-09T20:46:55.759Z,99409.59
2018-05-09T20:49:23.314Z,99390.30
2018-05-09T20:51:51.832Z,99402.48
2018-05-09T20:54:19.396Z,99258.33
2018-05-09T20:56:46.964Z,99221.80
2018-05-09T20:59:14.497Z,99176.11
2018-05-09T21:01:48.805Z,99268.48
2018-05-09T21:04:16.360Z,99416.69
2018-05-09T21:06:43.907Z,99398.42
2018-05-09T21:09:11.480Z,99406.54
2018-05-09T21:11:39.024Z,99356.80
2018-05-09T21:14:07.051Z,99494.86
2018-05-09T21:16:34.561Z,99328.38
2018-05-09T21:19:02.304Z,99450.19
2018-05-09T21:21:30.239Z,99602.47
2018-05-09T21:23:57.766Z,99421.77
2018-05-09T21:26:25.294Z,99572.00
2018-05-09T21:28:52.847Z,99450.19
2018-05-09T21:31:20.371Z,99479.62
2018-05-09T21:33:48.298Z,99560.84
2018-05-09T21:36:15.826Z,99627.84
2018-05-09T21:38:43.358Z,99641.04
2018-05-09T21:41:10.912Z,99655.25
2018-05-09T21:43:38.442Z,99646.12
2018-05-09T21:46:05.994Z,99708.05
2018-05-09T21:48:33.523Z,99713.12
2018-05-09T21:51:01.093Z,99764.89
2018-05-09T21:53:28.654Z,99740.53
2018-05-09T21:55:56.229Z,99742.56
2018-05-09T21:58:23.800Z,99894.84
2018-05-09T22:00:51.352Z,100141.56
2018-05-09T22:03:19.068Z,99985.20
2018-05-09T22:05:46.590Z,99730.38
2018-05-09T22:08:14.127Z,99898.91
2018-05-09T22:10:41.706Z,99949.67
2018-05-09T22:13:09.259Z,99998.41
2018-05-09T22:15:36.824Z,100219.74
2018-05-09T22:18:04.368Z,100287.77
2018-05-09T22:20:31.919Z,100223.80
2018-05-09T22:22:59.967Z,100118.20
2018-05-09T22:25:27.501Z,100276.60
2018-05-09T22:27:55.043Z,100243.09
2018-05-09T22:30:22.615Z,100284.73
2018-05-09T22:32:50.155Z,100242.08
2018-05-09T22:35:17.722Z,100364.94
2018-05-09T22:37:45.283Z,100331.44
2018-05-09T22:40:12.971Z,100391.34
2018-05-09T22:42:40.513Z,100474.61
2018-05-09T22:45:08.041Z,100437.03
2018-05-09T22:47:35.608Z,100516.23
2018-05-09T22:50:03.148Z,100495.93
2018-05-09T22:52:30.702Z,100576.16
2018-05-09T22:54:58.276Z,100606.62
2018-05-09T22:57:25.833Z,100648.25
2018-05-09T22:59:53.373Z,100627.94
2018-05-09T23:02:20.960Z,100779.25
2018-05-09T23:04:48.496Z,100780.27
2018-05-09T23:07:16.061Z,100835.10
2018-05-09T23:09:43.765Z,100950.88
2018-05-09T23:12:11.300Z,101012.83
2018-05-09T23:14:38.835Z,101048.38
2018-05-09T23:17:06.650Z,101167.20
2018-05-09T23:19:34.160Z,101194.62
2018-05-09T23:22:01.697Z,101102.20
2018-05-09T23:24:29.273Z,101180.40
2018-05-09T23:26:56.868Z,101278.92
2018-05-09T23:29:24.397Z,101216.97
2018-05-09T23:31:51.942Z,101312.44
2018-05-09T23:34:19.510Z,101366.27
2018-05-09T23:36:47.071Z,101275.88
2018-05-09T23:39:14.783Z,101401.81
2018-05-09T23:41:42.336Z,101328.69
2018-05-09T23:44:09.877Z,101401.81
2018-05-09T23:46:37.468Z,101454.63
2018-05-09T23:49:05.003Z,101461.74
2018-05-09T23:51:32.535Z,101513.55
2018-05-09T23:54:00.111Z,101593.79
2018-05-09T23:56:27.865Z,101559.25
2018-05-09T23:58:55.394Z,101701.46
